createdAt,value
2023-01-08T00:00:16.888Z,81
2023-01-08T00:05:16.940Z,82
2023-01-08T00:10:16.938Z,81
2023-01-08T00:15:17.030Z,80
2023-01-08T00:20:17.018Z,79
2023-01-08T00:25:17.077Z,79
2023-01-08T00:30:17.094Z,79
2023-01-08T00:35:16.939Z,79
2023-01-08T00:40:16.986Z,80
2023-01-08T00:45:17.077Z,78
2023-01-08T00:50:17.028Z,78
2023-01-08T00:55:17.196Z,78
2023-01-08T01:00:17.182Z,78
2023-01-08T01:05:17.050Z,79
2023-01-08T01:10:17.194Z,79
2023-01-08T01:15:17.146Z,78
2023-01-08T01:20:17.075Z,78
2023-01-08T01:25:17.098Z,77
2023-01-08T01:30:17.114Z,77
2023-01-08T01:35:17.286Z,77
2023-01-08T01:40:17.261Z,78
2023-01-08T01:45:17.187Z,77
2023-01-08T01:50:17.145Z,78
2023-01-08T01:55:17.112Z,78
2023-01-08T02:00:17.152Z,78
2023-01-08T02:05:17.191Z,79
2023-01-08T02:10:17.213Z,79
2023-01-08T02:15:17.164Z,79
2023-01-08T02:20:17.255Z,79
2023-01-08T02:25:17.276Z,79
2023-01-08T02:30:17.248Z,79
2023-01-08T02:35:17.284Z,79
2023-01-08T02:40:17.392Z,79
2023-01-08T02:45:17.288Z,80
2023-01-08T02:50:17.249Z,80
2023-01-08T02:55:17.363Z,80
2023-01-08T03:00:17.415Z,79
2023-01-08T03:05:17.372Z,80
2023-01-08T03:10:17.273Z,80
2023-01-08T03:15:17.289Z,80
2023-01-08T03:20:17.333Z,79
2023-01-08T03:25:17.584Z,79
2023-01-08T03:30:17.441Z,79
2023-01-08T03:35:17.379Z,79
2023-01-08T03:40:15.398Z,79
2023-01-08T03:45:15.434Z,78
2023-01-08T03:50:15.383Z,78
2023-01-08T03:55:15.597Z,77
2023-01-08T04:00:15.431Z,78
2023-01-08T04:05:15.554Z,77
2023-01-08T04:10:15.487Z,77
2023-01-08T04:15:15.398Z,76
2023-01-08T04:20:15.521Z,75
2023-01-08T04:25:15.537Z,75
2023-01-08T04:30:15.550Z,76
2023-01-08T04:35:15.562Z,75
2023-01-08T04:40:15.504Z,75
2023-01-08T04:45:15.499Z,75
2023-01-08T04:50:15.499Z,74
2023-01-08T04:55:15.511Z,75
2023-01-08T05:00:16.852Z,75
2023-01-08T05:05:16.572Z,76
2023-01-08T05:10:16.623Z,75
2023-01-08T05:15:16.650Z,75
2023-01-08T05:20:18.938Z,76
2023-01-08T05:25:16.595Z,76
2023-01-08T05:30:16.785Z,75
2023-01-08T05:35:16.663Z,76
2023-01-08T05:40:16.620Z,76
2023-01-08T05:45:16.774Z,76
2023-01-08T05:50:16.723Z,76
2023-01-08T05:55:16.602Z,76
2023-01-08T06:00:16.894Z,76
2023-01-08T06:05:16.870Z,76
2023-01-08T06:10:16.891Z,76
2023-01-08T06:15:16.724Z,76
2023-01-08T06:20:16.792Z,77
2023-01-08T06:25:16.685Z,77
2023-01-08T06:30:16.928Z,77
2023-01-08T06:35:16.804Z,77
2023-01-08T06:40:16.839Z,76
2023-01-08T06:45:16.793Z,76
2023-01-08T06:50:16.803Z,76
2023-01-08T06:55:16.845Z,76
2023-01-08T07:00:17.010Z,76
2023-01-08T07:05:16.866Z,76
2023-01-08T07:10:19.770Z,76
2023-01-08T07:15:16.863Z,76
2023-01-08T07:20:16.912Z,76
2023-01-08T07:25:16.879Z,76
2023-01-08T07:30:28.777Z,76
2023-01-08T07:35:16.912Z,76
2023-01-08T07:40:16.918Z,76
2023-01-08T07:45:17.007Z,76
2023-01-08T07:50:17.072Z,76
2023-01-08T07:55:16.908Z,76
2023-01-08T08:00:17.116Z,75
2023-01-08T08:05:17.000Z,75
2023-01-08T08:10:17.010Z,75
2023-01-08T08:15:17.023Z,75
2023-01-08T08:20:17.313Z,75
2023-01-08T08:25:17.030Z,75
2023-01-08T08:30:17.101Z,74
2023-01-08T08:35:17.001Z,75
2023-01-08T08:40:17.157Z,74
2023-01-08T08:45:17.066Z,75
2023-01-08T08:50:17.097Z,74
2023-01-08T08:55:17.153Z,73
2023-01-08T09:00:17.289Z,74
2023-01-08T09:05:17.288Z,74
2023-01-08T09:10:17.218Z,74
2023-01-08T09:15:17.115Z,74
2023-01-08T09:20:17.125Z,75
2023-01-08T09:25:17.275Z,75
2023-01-08T09:30:17.221Z,75
2023-01-08T09:35:17.273Z,75
2023-01-08T09:40:17.561Z,76
2023-01-08T09:45:17.267Z,76
2023-01-08T09:50:17.147Z,76
2023-01-08T09:55:17.377Z,76
2023-01-08T10:00:17.347Z,77
2023-01-08T10:05:17.292Z,77
2023-01-08T10:10:17.223Z,77
2023-01-08T10:15:17.246Z,77
2023-01-08T10:20:17.387Z,77
2023-01-08T10:25:17.336Z,77
2023-01-08T10:30:17.296Z,77
2023-01-08T10:35:17.317Z,77
2023-01-08T10:40:17.266Z,77
2023-01-08T10:45:17.279Z,77
2023-01-08T10:50:17.443Z,78
2023-01-08T10:55:17.351Z,77
2023-01-08T11:00:17.371Z,77
2023-01-08T11:05:17.631Z,77
2023-01-08T11:10:15.458Z,77
2023-01-08T11:15:15.380Z,77
2023-01-08T11:20:15.468Z,77
2023-01-08T11:25:15.399Z,77
2023-01-08T11:30:15.639Z,77
2023-01-08T11:35:15.594Z,76
2023-01-08T11:40:15.502Z,77
2023-01-08T11:45:15.516Z,77
2023-01-08T11:50:15.512Z,77
2023-01-08T11:55:15.411Z,77
2023-01-08T12:00:15.584Z,77
2023-01-08T12:05:15.588Z,77
2023-01-08T12:10:15.600Z,77
2023-01-08T12:15:15.679Z,77
2023-01-08T12:20:15.590Z,77
2023-01-08T12:25:15.673Z,77
2023-01-08T12:30:15.594Z,77
2023-01-08T12:35:15.547Z,77
2023-01-08T12:40:15.600Z,77
2023-01-08T12:45:15.575Z,77
2023-01-08T12:50:15.699Z,77
2023-01-08T12:55:15.604Z,77
2023-01-08T13:00:15.770Z,77
2023-01-08T13:05:15.743Z,76
2023-01-08T13:10:15.869Z,76
2023-01-08T13:15:15.770Z,77
2023-01-08T13:20:16.090Z,76
2023-01-08T13:25:15.731Z,76
2023-01-08T13:30:15.744Z,76
2023-01-08T13:35:15.711Z,76
2023-01-08T13:40:15.772Z,76
2023-01-08T13:45:15.836Z,76
2023-01-08T13:50:15.859Z,75
2023-01-08T13:55:15.642Z,75
2023-01-08T14:00:15.918Z,75
2023-01-08T14:05:15.788Z,74
2023-01-08T14:10:15.781Z,74
2023-01-08T14:15:15.846Z,74
2023-01-08T14:20:15.942Z,75
2023-01-08T14:25:15.865Z,74
2023-01-08T14:30:15.986Z,73
2023-01-08T14:35:16.006Z,74
2023-01-08T14:40:15.947Z,73
2023-01-08T14:45:15.893Z,72
2023-01-08T14:50:15.805Z,72
2023-01-08T14:55:15.908Z,73
2023-01-08T15:00:15.980Z,72
2023-01-08T15:05:15.938Z,71
2023-01-08T15:10:16.181Z,71
2023-01-08T15:15:16.048Z,70
2023-01-08T15:20:15.967Z,70
2023-01-08T15:25:16.097Z,69
2023-01-08T15:30:16.028Z,69
2023-01-08T15:35:16.086Z,68
2023-01-08T15:40:16.025Z,68
2023-01-08T15:45:16.058Z,68
2023-01-08T15:50:16.103Z,68
2023-01-08T15:55:15.952Z,67
2023-01-08T16:00:16.033Z,67
2023-01-08T16:05:16.322Z,66
2023-01-08T16:10:16.071Z,66
2023-01-08T16:15:16.094Z,66
2023-01-08T16:20:16.131Z,68
2023-01-08T16:25:16.084Z,66
2023-01-08T16:30:16.174Z,66
2023-01-08T16:35:16.095Z,66
2023-01-08T16:40:16.152Z,65
2023-01-08T16:45:16.225Z,65
2023-01-08T16:50:16.276Z,66
2023-01-08T16:55:16.377Z,67
2023-01-08T17:00:16.207Z,68
2023-01-08T17:05:16.249Z,67
2023-01-08T17:10:16.283Z,65
2023-01-08T17:15:16.211Z,64
2023-01-08T17:20:16.337Z,65
2023-01-08T17:25:16.164Z,63
2023-01-08T17:30:16.272Z,63
2023-01-08T17:35:16.231Z,63
2023-01-08T17:40:16.229Z,62
2023-01-08T17:45:16.323Z,62
2023-01-08T17:50:16.322Z,61
2023-01-08T17:55:16.218Z,61
2023-01-08T18:00:16.313Z,63
2023-01-08T18:05:16.270Z,63
2023-01-08T18:10:16.303Z,64
2023-01-08T18:15:16.814Z,64
2023-01-08T18:20:16.374Z,66
2023-01-08T18:25:16.388Z,64
2023-01-08T18:30:16.631Z,67
2023-01-08T18:35:16.350Z,68
2023-01-08T18:40:16.555Z,67
2023-01-08T18:45:16.434Z,67
2023-01-08T18:50:16.417Z,64
2023-01-08T18:55:16.426Z,65
2023-01-08T19:00:16.434Z,64
2023-01-08T19:05:16.447Z,65
2023-01-08T19:10:16.391Z,66
2023-01-08T19:15:16.432Z,65
2023-01-08T19:20:16.638Z,66
2023-01-08T19:25:16.505Z,65
2023-01-08T19:30:16.597Z,67
2023-01-08T19:35:16.846Z,66
2023-01-08T19:40:16.555Z,66
2023-01-08T19:45:16.580Z,64
2023-01-08T19:50:16.605Z,62
2023-01-08T19:55:16.467Z,63
2023-01-08T20:00:16.550Z,64
2023-01-08T20:05:16.630Z,63
2023-01-08T20:10:16.569Z,65
2023-01-08T20:15:16.588Z,65
2023-01-08T20:20:16.567Z,67
2023-01-08T20:25:16.605Z,66
2023-01-08T20:30:16.736Z,67
2023-01-08T20:35:16.745Z,67
2023-01-08T20:40:16.704Z,67
2023-01-08T20:45:16.768Z,68
2023-01-08T20:50:20.328Z,68
2023-01-08T20:55:18.611Z,69
2023-01-08T21:00:16.808Z,70
2023-01-08T21:05:16.776Z,69
2023-01-08T21:10:16.854Z,69
2023-01-08T21:15:16.702Z,69
2023-01-08T21:20:16.796Z,69
2023-01-08T21:25:16.731Z,70
2023-01-08T21:30:16.923Z,71
2023-01-08T21:35:16.730Z,71
2023-01-08T21:40:16.786Z,72
2023-01-08T21:45:16.805Z,71
2023-01-08T21:50:16.821Z,71
2023-01-08T21:55:16.743Z,72
2023-01-08T22:00:16.846Z,72
2023-01-08T22:05:16.808Z,72
2023-01-08T22:10:16.809Z,73
2023-01-08T22:15:16.881Z,73
2023-01-08T22:20:16.965Z,73
2023-01-08T22:25:17.118Z,73
2023-01-08T22:30:16.880Z,74
2023-01-08T22:35:16.958Z,75
2023-01-08T22:40:16.873Z,74
2023-01-08T22:45:16.925Z,74
2023-01-08T22:50:16.977Z,74
2023-01-08T22:55:16.961Z,74
2023-01-08T23:00:17.020Z,74
2023-01-08T23:05:17.016Z,75
2023-01-08T23:10:17.021Z,75
2023-01-08T23:15:16.949Z,75
2023-01-08T23:20:16.973Z,76
2023-01-08T23:25:17.106Z,76
2023-01-08T23:30:17.022Z,76
2023-01-08T23:35:17.159Z,76
2023-01-08T23:40:16.981Z,75
2023-01-08T23:45:17.103Z,75
2023-01-08T23:50:17.036Z,74
2023-01-08T23:55:17.118Z,74
